createdAt,value
2019-02-21T00:03:46.107Z,7.53
2019-02-21T00:06:32.514Z,7.53
2019-02-21T00:09:02.927Z,7.51
2019-02-21T00:11:49.801Z,7.47
2019-02-21T00:17:24.439Z,7.46
2019-02-21T00:19:52.515Z,7.42
2019-02-21T00:22:20.263Z,7.39
2019-02-21T00:25:06.644Z,7.31
2019-02-21T00:27:34.393Z,7.31
2019-02-21T00:30:21.141Z,7.29
2019-02-21T00:33:22.562Z,7.31
2019-02-21T00:35:39.536Z,7.31
2019-02-21T00:38:25.934Z,7.31
2019-02-21T00:40:56.179Z,7.31
2019-02-21T00:43:24.316Z,7.31
2019-02-21T00:45:52.327Z,7.33
2019-02-21T00:48:38.799Z,7.32
2019-02-21T00:53:39.833Z,7.29
2019-02-21T00:56:10.221Z,7.31
2019-02-21T00:58:38.002Z,7.31
2019-02-21T01:01:24.455Z,7.31
2019-02-21T01:03:52.349Z,7.31
2019-02-21T01:06:20.215Z,7.31
2019-02-21T01:09:06.693Z,7.30
2019-02-21T01:11:34.484Z,7.28
2019-02-21T01:14:02.225Z,7.25
2019-02-21T01:16:48.616Z,7.25
2019-02-21T01:19:16.742Z,7.23
2019-02-21T01:24:36.739Z,7.14
2019-02-21T01:29:37.494Z,7.06
2019-02-21T01:37:25.238Z,6.92
2019-02-21T01:40:12.328Z,6.91
2019-02-21T01:42:40.055Z,6.91
2019-02-21T01:45:07.779Z,6.90
2019-02-21T01:47:54.532Z,6.83
2019-02-21T01:50:22.246Z,6.83
2019-02-21T02:03:21.132Z,6.59
2019-02-21T02:08:35.485Z,6.52
2019-02-21T02:11:21.858Z,6.46
2019-02-21T02:13:52.170Z,6.40
2019-02-21T02:16:19.943Z,6.33
2019-02-21T02:19:06.383Z,6.28
2019-02-21T02:21:34.133Z,6.28
2019-02-21T02:24:02.433Z,6.24
2019-02-21T02:26:30.491Z,6.23
2019-02-21T02:28:58.273Z,6.23
2019-02-21T02:31:26.003Z,6.24
2019-02-21T02:33:53.767Z,6.21
2019-02-21T02:36:40.151Z,6.07
2019-02-21T02:39:07.997Z,6.07
2019-02-21T02:44:22.259Z,5.89
2019-02-21T02:46:50.072Z,5.90
2019-02-21T02:49:36.600Z,5.86
2019-02-21T02:52:04.358Z,5.87
2019-02-21T02:54:32.082Z,5.91
2019-02-21T02:57:18.467Z,5.91
2019-02-21T03:02:20.143Z,5.97
2019-02-21T03:04:48.007Z,5.95
2019-02-21T03:12:52.722Z,5.78
2019-02-21T03:17:54.072Z,5.71
2019-02-21T03:20:21.838Z,5.68
2019-02-21T03:23:08.323Z,5.70
2019-02-21T03:25:54.808Z,5.77
2019-02-21T03:28:22.509Z,5.85
2019-02-21T03:31:08.956Z,5.92
2019-02-21T03:39:02.000Z,6.16
2019-02-21T03:41:29.570Z,6.24
2019-02-21T03:44:15.964Z,6.31
2019-02-21T03:46:43.439Z,6.37
2019-02-21T03:49:11.049Z,6.37
2019-02-21T03:51:57.429Z,6.46
2019-02-21T03:54:24.961Z,6.49
2019-02-21T03:57:11.389Z,6.49
2019-02-21T03:59:38.939Z,6.58
2019-02-21T04:02:06.522Z,6.58
2019-02-21T04:04:52.886Z,6.63
2019-02-21T04:07:21.800Z,6.67
2019-02-21T04:10:08.781Z,6.68
2019-02-21T04:12:36.254Z,6.68
2019-02-21T04:17:40.511Z,6.71
2019-02-21T04:20:26.842Z,6.73
2019-02-21T04:22:54.397Z,6.73
2019-02-21T04:25:21.938Z,6.73
2019-02-21T04:28:08.359Z,6.72
2019-02-21T04:30:35.926Z,6.72
2019-02-21T04:33:22.630Z,6.71
2019-02-21T04:35:50.376Z,6.70
2019-02-21T04:38:50.738Z,6.69
2019-02-21T04:41:06.290Z,6.69
2019-02-21T04:43:34.047Z,6.67
2019-02-21T04:46:20.340Z,6.67
2019-02-21T04:48:48.013Z,6.70
2019-02-21T04:51:15.683Z,6.69
2019-02-21T04:54:02.084Z,6.68
2019-02-21T04:56:48.783Z,6.65
2019-02-21T04:59:16.721Z,6.65
2019-02-21T05:02:03.392Z,6.63
2019-02-21T05:04:30.914Z,6.63
2019-02-21T05:07:17.592Z,6.61
2019-02-21T05:09:57.018Z,6.60
2019-02-21T05:12:14.453Z,6.60
2019-02-21T05:15:01.064Z,6.55
2019-02-21T05:17:47.505Z,6.46
2019-02-21T05:20:15.018Z,6.46
2019-02-21T05:23:01.367Z,6.46
2019-02-21T05:25:29.012Z,6.46
2019-02-21T05:28:15.404Z,6.47
2019-02-21T05:30:43.049Z,6.49
2019-02-21T05:33:29.876Z,6.49
2019-02-21T05:36:16.310Z,6.50
2019-02-21T05:39:02.657Z,6.54
2019-02-21T05:41:49.120Z,6.55
2019-02-21T05:44:35.512Z,6.55
2019-02-21T05:47:21.888Z,6.55
2019-02-21T05:50:08.301Z,6.53
2019-02-21T05:52:54.691Z,6.53
2019-02-21T05:55:41.005Z,6.48
2019-02-21T05:58:28.247Z,6.47
2019-02-21T06:01:14.584Z,6.47
2019-02-21T06:04:00.881Z,6.43
2019-02-21T06:06:47.874Z,6.43
2019-02-21T06:09:34.387Z,6.42
2019-02-21T06:12:32.796Z,6.42
2019-02-21T06:18:14.553Z,6.43
2019-02-21T06:20:48.728Z,6.43
2019-02-21T06:23:49.212Z,6.42
2019-02-21T06:26:23.206Z,6.42
2019-02-21T06:29:09.962Z,6.42
2019-02-21T06:31:37.566Z,6.41
2019-02-21T06:34:05.156Z,6.40
2019-02-21T06:36:51.508Z,6.40
2019-02-21T06:39:19.430Z,6.40
2019-02-21T06:41:59.071Z,6.38
2019-02-21T06:44:20.426Z,6.38
2019-02-21T06:46:48.242Z,6.45
2019-02-21T06:49:15.844Z,6.45
2019-02-21T06:51:43.390Z,6.48
2019-02-21T06:54:11.170Z,6.48
2019-02-21T06:56:38.617Z,6.48
2019-02-21T06:59:24.979Z,6.49
2019-02-21T07:02:13.538Z,6.49
2019-02-21T07:04:40.629Z,6.49
2019-02-21T07:07:27.043Z,6.47
2019-02-21T07:09:54.591Z,6.47
2019-02-21T07:12:41.016Z,6.46
2019-02-21T07:15:25.893Z,6.50
2019-02-21T07:18:12.237Z,6.50
2019-02-21T07:20:51.643Z,6.54
2019-02-21T07:23:11.186Z,6.54
2019-02-21T07:28:17.260Z,6.62
2019-02-21T07:30:45.361Z,6.71
2019-02-21T07:33:13.068Z,6.71
2019-02-21T07:35:52.515Z,6.84
2019-02-21T07:38:28.598Z,6.92
2019-02-21T07:40:56.294Z,6.92
2019-02-21T07:43:36.182Z,7.05
2019-02-21T07:45:53.405Z,7.05
2019-02-21T07:48:23.820Z,7.13
2019-02-21T07:51:10.181Z,7.23
2019-02-21T07:53:58.967Z,7.46
2019-02-21T07:56:45.320Z,7.58
2019-02-21T07:59:12.869Z,7.58
2019-02-21T08:01:40.481Z,7.84
2019-02-21T08:04:40.391Z,7.93
2019-02-21T08:06:56.523Z,7.93
2019-02-21T08:09:45.400Z,8.14
2019-02-21T08:12:13.030Z,8.14
2019-02-21T08:14:40.487Z,8.28
2019-02-21T08:17:28.098Z,8.40
2019-02-21T08:20:07.437Z,8.62
2019-02-21T08:22:57.259Z,8.62
2019-02-21T08:25:14.274Z,8.73
2019-02-21T08:28:00.674Z,8.81
2019-02-21T08:30:29.257Z,9.07
2019-02-21T08:35:48.143Z,9.53
2019-02-21T08:38:34.879Z,9.53
2019-02-21T08:44:07.640Z,10.05
2019-02-21T08:46:35.166Z,10.24
2019-02-21T08:49:23.942Z,10.16
2019-02-21T08:51:55.093Z,10.16
2019-02-21T08:54:42.001Z,10.13
2019-02-21T08:57:09.570Z,10.22
2019-02-21T08:59:56.000Z,10.22
2019-02-21T09:02:23.552Z,10.35
2019-02-21T09:05:10.301Z,10.47
2019-02-21T09:10:42.962Z,10.66
2019-02-21T09:13:29.321Z,10.77
2019-02-21T09:16:19.345Z,10.82
2019-02-21T09:21:53.521Z,10.89
2019-02-21T09:24:37.478Z,11.02
2019-02-21T09:27:09.399Z,11.02
2019-02-21T09:29:55.757Z,11.26
2019-02-21T09:32:44.142Z,11.26
2019-02-21T09:35:11.376Z,11.34
2019-02-21T09:37:39.228Z,11.39
2019-02-21T09:40:25.605Z,11.38
2019-02-21T09:43:12.033Z,11.32
2019-02-21T09:45:42.147Z,11.25
2019-02-21T09:48:11.958Z,11.25
2019-02-21T09:50:58.214Z,11.09
2019-02-21T09:53:47.160Z,11.09
2019-02-21T09:56:33.509Z,11.01
2019-02-21T09:59:19.792Z,10.97
2019-02-21T10:01:47.350Z,11.01
2019-02-21T10:06:49.997Z,11.35
2019-02-21T10:09:17.520Z,11.35
2019-02-21T10:12:03.871Z,11.52
2019-02-21T10:17:05.534Z,11.93
2019-02-21T10:19:53.037Z,12.01
2019-02-21T10:22:20.674Z,12.02
2019-02-21T10:24:50.967Z,12.01
2019-02-21T10:27:18.661Z,11.99
2019-02-21T10:29:46.610Z,11.99
2019-02-21T10:32:33.823Z,11.96
2019-02-21T10:35:03.094Z,11.89
2019-02-21T10:37:49.374Z,11.89
2019-02-21T10:40:16.999Z,11.85
2019-02-21T10:42:44.607Z,11.79
2019-02-21T10:45:31.042Z,11.71
2019-02-21T10:47:58.674Z,11.63
2019-02-21T10:50:26.293Z,11.57
2019-02-21T10:53:12.675Z,11.62
2019-02-21T10:55:40.242Z,11.62
2019-02-21T11:00:54.423Z,12.38
2019-02-21T11:03:40.769Z,13.57
2019-02-21T11:06:27.185Z,13.57
2019-02-21T11:08:54.655Z,13.75
2019-02-21T11:11:41.061Z,13.64
2019-02-21T11:14:08.542Z,13.69
2019-02-21T11:16:36.162Z,13.69
2019-02-21T11:19:22.505Z,14.22
2019-02-21T11:22:08.948Z,14.42
2019-02-21T11:24:55.367Z,14.42
2019-02-21T11:27:22.988Z,14.45
2019-02-21T11:30:15.298Z,14.46
2019-02-21T11:32:43.222Z,14.50
2019-02-21T11:35:29.671Z,14.54
2019-02-21T11:37:57.428Z,14.68
2019-02-21T11:40:31.957Z,14.85
2019-02-21T11:43:18.714Z,15.01
2019-02-21T11:45:53.809Z,15.01
2019-02-21T11:48:15.808Z,15.56
2019-02-21T11:50:43.389Z,16.07
2019-02-21T11:53:11.252Z,16.08
2019-02-21T11:55:38.808Z,15.65
2019-02-21T11:58:06.408Z,15.19
2019-02-21T12:00:52.765Z,14.83
2019-02-21T12:03:39.188Z,14.57
2019-02-21T12:06:25.581Z,14.37
2019-02-21T12:08:53.095Z,14.26
2019-02-21T12:14:26.011Z,14.04
2019-02-21T12:16:53.812Z,14.04
2019-02-21T12:22:28.250Z,14.10
2019-02-21T12:24:55.694Z,14.12
2019-02-21T12:27:23.444Z,14.16
2019-02-21T12:29:51.543Z,14.12
2019-02-21T12:32:22.252Z,14.12
2019-02-21T12:34:59.186Z,14.12
2019-02-21T12:37:26.720Z,14.11
2019-02-21T12:39:58.360Z,14.11
2019-02-21T12:42:28.146Z,14.17
2019-02-21T12:44:59.860Z,14.27
2019-02-21T12:47:27.365Z,14.40
2019-02-21T12:49:55.582Z,14.54
2019-02-21T12:52:29.149Z,14.50
2019-02-21T12:54:59.904Z,14.50
2019-02-21T12:57:27.691Z,14.43
2019-02-21T12:59:55.245Z,14.43
2019-02-21T13:02:22.746Z,14.37
2019-02-21T13:04:50.574Z,14.57
2019-02-21T13:07:18.109Z,15.25
2019-02-21T13:09:45.693Z,15.67
2019-02-21T13:12:14.585Z,15.91
2019-02-21T13:14:42.136Z,15.62
2019-02-21T13:17:09.608Z,15.62
2019-02-21T13:19:37.601Z,15.42
2019-02-21T13:22:05.114Z,15.12
2019-02-21T13:24:33.883Z,14.80
2019-02-21T13:27:04.464Z,14.30
2019-02-21T13:29:37.879Z,14.12
2019-02-21T13:32:07.939Z,14.12
2019-02-21T13:34:35.476Z,13.80
2019-02-21T13:37:05.840Z,13.80
2019-02-21T13:39:35.775Z,13.69
2019-02-21T13:42:03.290Z,13.61
2019-02-21T13:44:30.735Z,13.52
2019-02-21T13:46:58.516Z,13.43
2019-02-21T13:49:26.078Z,13.43
2019-02-21T13:51:55.484Z,13.44
2019-02-21T13:54:23.302Z,13.48
2019-02-21T13:56:50.829Z,13.53
2019-02-21T13:59:18.376Z,13.53
2019-02-21T14:01:46.247Z,13.60
2019-02-21T14:04:13.796Z,13.74
2019-02-21T14:06:41.395Z,13.93
2019-02-21T14:09:09.223Z,13.93
2019-02-21T14:11:39.089Z,13.92
2019-02-21T14:14:06.606Z,13.80
2019-02-21T14:16:46.190Z,13.80
2019-02-21T14:19:06.409Z,13.74
2019-02-21T14:21:36.986Z,13.73
2019-02-21T14:24:08.107Z,13.70
2019-02-21T14:26:35.667Z,13.68
2019-02-21T14:29:03.451Z,13.69
2019-02-21T14:31:33.605Z,13.68
2019-02-21T14:34:00.234Z,13.68
2019-02-21T14:36:28.139Z,13.67
2019-02-21T14:38:55.931Z,13.62
2019-02-21T14:41:23.544Z,13.62
2019-02-21T14:44:00.521Z,13.66
2019-02-21T14:46:28.116Z,13.66
2019-02-21T14:48:55.654Z,13.78
2019-02-21T14:51:26.679Z,14.08
2019-02-21T14:53:55.391Z,14.21
2019-02-21T14:56:32.100Z,14.17
2019-02-21T14:59:05.962Z,13.99
2019-02-21T15:01:37.054Z,13.82
2019-02-21T15:04:05.382Z,13.82
2019-02-21T15:06:43.124Z,13.61
2019-02-21T15:09:05.518Z,13.61
2019-02-21T15:11:33.404Z,13.58
2019-02-21T15:14:00.962Z,13.46
2019-02-21T15:16:30.858Z,13.46
2019-02-21T15:18:58.731Z,13.39
2019-02-21T15:21:30.335Z,13.31
2019-02-21T15:24:00.039Z,13.19
2019-02-21T15:26:27.808Z,13.15
2019-02-21T15:28:55.307Z,13.10
2019-02-21T15:31:22.926Z,13.03
2019-02-21T15:33:52.922Z,13.03
2019-02-21T15:36:20.506Z,13.00
2019-02-21T15:38:48.074Z,12.93
2019-02-21T15:41:25.417Z,12.93
2019-02-21T15:43:53.207Z,12.93
2019-02-21T15:46:23.259Z,12.88
2019-02-21T15:48:53.423Z,12.88
2019-02-21T15:51:21.007Z,12.86
2019-02-21T15:53:48.548Z,12.82
2019-02-21T15:56:19.511Z,12.77
2019-02-21T15:58:53.166Z,12.72
2019-02-21T16:01:20.702Z,12.63
2019-02-21T16:03:48.471Z,12.63
2019-02-21T16:06:19.059Z,12.60
2019-02-21T16:08:54.304Z,12.53
2019-02-21T16:11:23.046Z,12.53
2019-02-21T16:14:02.555Z,12.49
2019-02-21T16:16:22.301Z,12.44
2019-02-21T16:18:52.748Z,12.40
2019-02-21T16:21:19.738Z,12.34
2019-02-21T16:23:47.708Z,12.30
2019-02-21T16:26:15.325Z,12.24
2019-02-21T16:28:45.962Z,12.21
2019-02-21T16:31:31.070Z,12.21
2019-02-21T16:33:58.649Z,12.17
2019-02-21T16:36:28.766Z,12.14
2019-02-21T16:38:59.517Z,12.07
2019-02-21T16:41:36.173Z,12.07
2019-02-21T16:43:56.604Z,12.03
2019-02-21T16:46:24.243Z,12.01
2019-02-21T16:48:51.993Z,12.00
2019-02-21T16:51:22.165Z,11.97
2019-02-21T16:53:53.828Z,11.97
2019-02-21T16:56:26.490Z,11.95
2019-02-21T16:58:53.417Z,11.92
2019-02-21T17:01:23.314Z,11.90
2019-02-21T17:03:50.892Z,11.89
2019-02-21T17:06:22.843Z,11.86
2019-02-21T17:08:50.370Z,11.85
2019-02-21T17:11:20.448Z,11.84
2019-02-21T17:13:51.648Z,11.84
2019-02-21T17:16:28.164Z,11.82
2019-02-21T17:18:56.106Z,11.80
2019-02-21T17:21:23.945Z,11.77
2019-02-21T17:23:53.843Z,11.76
2019-02-21T17:26:24.587Z,11.74
2019-02-21T17:28:52.675Z,11.72
2019-02-21T17:31:21.629Z,11.72
2019-02-21T17:33:49.169Z,11.73
2019-02-21T17:36:16.945Z,11.73
2019-02-21T17:38:44.503Z,11.72
2019-02-21T17:41:12.099Z,11.72
2019-02-21T17:43:49.065Z,11.73
2019-02-21T17:46:19.648Z,11.72
2019-02-21T17:48:55.349Z,11.74
2019-02-21T17:51:23.182Z,11.74
2019-02-21T17:53:50.779Z,11.73
2019-02-21T17:56:23.868Z,11.73
2019-02-21T17:58:51.907Z,11.75
2019-02-21T18:01:19.559Z,11.75
2019-02-21T18:03:47.069Z,11.77
2019-02-21T18:06:14.931Z,11.77
2019-02-21T18:08:42.393Z,11.77
2019-02-21T18:11:12.650Z,11.75
2019-02-21T18:13:40.496Z,11.75
2019-02-21T18:16:08.026Z,11.72
2019-02-21T18:18:39.269Z,11.72
2019-02-21T18:21:08.259Z,11.71
2019-02-21T18:23:35.927Z,11.71
2019-02-21T18:26:05.901Z,11.68
2019-02-21T18:28:36.170Z,11.68
2019-02-21T18:31:02.956Z,11.64
2019-02-21T18:33:33.105Z,11.64
2019-02-21T18:36:00.953Z,11.62
2019-02-21T18:38:28.465Z,11.58
2019-02-21T18:40:56.049Z,11.58
2019-02-21T18:43:23.862Z,11.57
2019-02-21T18:45:51.395Z,11.54
2019-02-21T18:48:20.218Z,11.54
2019-02-21T18:50:52.063Z,11.51
2019-02-21T18:53:23.553Z,11.50
2019-02-21T18:55:51.181Z,11.47
2019-02-21T18:58:19.088Z,11.47
2019-02-21T19:00:50.279Z,11.49
2019-02-21T19:03:20.785Z,11.48
2019-02-21T19:05:48.568Z,11.48
2019-02-21T19:08:16.062Z,11.45
2019-02-21T19:10:43.680Z,11.44
2019-02-21T19:13:13.193Z,11.44
2019-02-21T19:15:40.846Z,11.43
2019-02-21T19:18:08.414Z,11.43
2019-02-21T19:20:44.095Z,11.43
2019-02-21T19:23:11.363Z,11.43
2019-02-21T19:25:38.828Z,11.41
2019-02-21T19:28:11.922Z,11.41
2019-02-21T19:30:45.139Z,11.41
2019-02-21T19:33:12.919Z,11.40
2019-02-21T19:35:40.528Z,11.39
2019-02-21T19:38:12.119Z,11.37
2019-02-21T19:40:49.898Z,11.36
2019-02-21T19:43:17.438Z,11.33
2019-02-21T19:45:45.349Z,11.33
2019-02-21T19:48:16.234Z,11.31
2019-02-21T19:50:47.336Z,11.27
2019-02-21T19:53:15.097Z,11.22
2019-02-21T19:55:42.618Z,11.22
2019-02-21T19:58:10.131Z,11.15
2019-02-21T20:00:43.820Z,11.06
2019-02-21T20:03:11.348Z,11.06
2019-02-21T20:05:41.706Z,11.00
2019-02-21T20:11:02.947Z,10.92
2019-02-21T20:13:35.470Z,10.89
2019-02-21T20:16:05.722Z,10.84
2019-02-21T20:18:36.076Z,10.78
2019-02-21T20:21:03.652Z,10.76
2019-02-21T20:23:31.357Z,10.76
2019-02-21T20:25:59.478Z,10.73
2019-02-21T20:28:30.021Z,10.67
2019-02-21T20:30:58.515Z,10.67
2019-02-21T20:33:29.257Z,10.59
2019-02-21T20:35:57.338Z,10.59
2019-02-21T20:38:32.016Z,10.52
2019-02-21T20:40:57.128Z,10.47
2019-02-21T20:43:24.595Z,10.35
2019-02-21T20:45:53.605Z,10.31
2019-02-21T20:48:23.067Z,10.28
2019-02-21T20:50:56.919Z,10.26
2019-02-21T20:53:22.971Z,10.26
2019-02-21T20:55:55.065Z,10.23
2019-02-21T20:58:20.095Z,10.22
2019-02-21T21:00:47.621Z,10.20
2019-02-21T21:03:18.676Z,10.13
2019-02-21T21:05:47.847Z,10.13
2019-02-21T21:08:15.514Z,10.11
2019-02-21T21:11:10.094Z,10.06
2019-02-21T21:13:37.873Z,10.01
2019-02-21T21:16:07.165Z,10.01
2019-02-21T21:18:53.596Z,9.97
2019-02-21T21:21:21.229Z,9.97
2019-02-21T21:24:07.504Z,9.97
2019-02-21T21:26:53.867Z,9.94
2019-02-21T21:29:40.302Z,9.94
2019-02-21T21:35:03.577Z,9.90
2019-02-21T21:40:36.374Z,9.89
2019-02-21T21:43:03.947Z,9.88
2019-02-21T21:45:50.352Z,9.87
2019-02-21T21:51:09.891Z,9.87
2019-02-21T21:53:37.373Z,9.86
2019-02-21T21:56:23.808Z,9.86
2019-02-21T21:58:54.100Z,9.86
2019-02-21T22:01:40.506Z,9.85
2019-02-21T22:04:26.789Z,9.86
2019-02-21T22:07:25.385Z,9.84
2019-02-21T22:10:01.575Z,9.84
2019-02-21T22:12:47.920Z,9.84
2019-02-21T22:15:34.359Z,9.83
2019-02-21T22:18:20.762Z,9.83
2019-02-21T22:23:41.421Z,9.81
2019-02-21T22:26:09.211Z,9.81
2019-02-21T22:28:39.702Z,9.81
2019-02-21T22:31:09.807Z,9.80
2019-02-21T22:33:56.144Z,9.80
2019-02-21T22:36:42.499Z,9.78
2019-02-21T22:39:23.755Z,9.78
2019-02-21T22:42:00.594Z,9.78
2019-02-21T22:44:47.049Z,9.77
2019-02-21T22:47:15.510Z,9.77
2019-02-21T22:49:43.284Z,9.76
2019-02-21T22:52:41.575Z,9.77
2019-02-21T22:55:09.358Z,9.78
2019-02-21T22:57:47.280Z,9.77
2019-02-21T23:00:14.924Z,9.77
2019-02-21T23:03:01.723Z,9.75
2019-02-21T23:05:48.041Z,9.73
2019-02-21T23:08:15.753Z,9.73
2019-02-21T23:11:02.127Z,9.73
2019-02-21T23:16:35.171Z,9.72
2019-02-21T23:21:49.284Z,9.73
2019-02-21T23:24:18.659Z,9.74
2019-02-21T23:26:46.345Z,9.72
2019-02-21T23:29:32.753Z,9.72
2019-02-21T23:32:19.121Z,9.72
2019-02-21T23:35:05.561Z,9.72
2019-02-21T23:40:26.273Z,9.71
2019-02-21T23:45:28.029Z,9.68
2019-02-21T23:48:14.304Z,9.69
2019-02-21T23:50:53.796Z,9.68
2019-02-21T23:53:11.198Z,9.68
2019-02-21T23:55:38.951Z,9.69
2019-02-21T23:58:25.282Z,9.69
